Capitol Logistics 328


KLAX
Los Angeles International Airport
Los Angeles, California, US
KMCI
Kansas City International Airport
Kansas City, Missouri, US

Activity Log

Date Flight Route Aircraft Duration
04/28/2020 CPX328 ORCKA3 LAS J146 DVC GCK J28 ICT EMP JHAWK6 B752 3h 12m
03/15/2020 CPX328 GARDY3 GARDY YELAH PGS J128 TBC J64 RSK J110 FRACA EMP B763 2h 50m
09/07/2019 CPX328 ORCKA3 LAS J146 DVC GCK J28 ICT EMP JHAWK6 B763 2h 58m

Route Details

Aircraft Information
Primary: Boeing 767-300BDSF
Backup: Boeing 757-200SF
Route Data
Distance: 1184nm
Sched. Duration: 3h 00m
Avg. Duration: 2h 73m (-26m)
Times Flown: 3
Recm'd Route: ORCKA3 LAS J146 DVC GCK J28 ICT EMP JHAWK6
Planned Altitude: 37,000ft
Origin Wx: KLAX 240853Z 09003KT 10SM FEW008 BKN100 08/05 A2990 RMK AO2 SLP125 T00780050 55003
Dest. Wx: KMCI 240853Z 19006KT 9SM -SN OVC022 04/M01 A2995 RMK AO2 SNB31 SLP146 P0000 60000 T00441011 53001
Notes: METROAIR CARGO SUPPORT

Financial History
Total Freight: 225,567lbs
Average Load: 75,189lbs/flt
Fuel Used: 78,569lbs
Avg. Fuel Used: 26,190lbs/flt
Fuel Expense: $91,983
Avg. Fuel Expense: $30,661
Avg. Fuel Cost: $1.17/lbs
Total Gross Income: $323,750
Pilot Pay: $567
Total Expenses: $35,121
Total Revenue: $194,834
Average Revenue: $107,916.83